Murmansk, Russia

1:19 AM MSK on April 02, 2015 (GMT +0300)
Murmansk | | Change Station
CLOSE
Current Station
Airport
Location: Murmansk,
Elevation: 266 ft
Nearby Weather Stations

Elev 266 ft 68.78 °N, 32.75 °E | Updated 19 minutes ago

Light Snow Showers
Light Showers Snow Rain
32 °F
Feels Like 24 °F
N
9
Wind Variable Wind from SSE

Today
High -- | Low -- °F
--% Chance of Precip.
Yesterday
High -- | Low -- °F
Precip. -- in
5:51 AM 7:53 PM
Waxing Gibbous, 94% visible
Pressure 29.42 in
Visibility 6.2 miles
Clouds Mostly Cloudy 1300 ft
Mostly Cloudy 8000 ft
Windchill 24 °F
Dew Point 30 °F
Humidity 93%
Rainfall 0.00 in
Snow Depth Not available.
UV 0 out of 12
Pollen Not available.
Air Quality Not available.
Flu Activity Not available.
METAR ULMM 012200Z 16004MPS 9999 -SHSNRA BKN013CB BKN080 00/M01 Q0996 NOSIG RMK QFE740 13190060

More Conditions Fewer Conditions

Pressure 29.42 in
Visibility 6.2 miles
Clouds Mostly Cloudy 1300 ft
Mostly Cloudy 8000 ft
Windchill 24 °F
Dew Point 30 °F
Humidity 93%
Rainfall 0.00 in
Snow Depth Not available.
UV 0 out of 12
Pollen Not available.
Air Quality Not available.
Flu Activity Not available.
METAR ULMM 012200Z 16004MPS 9999 -SHSNRA BKN013CB BKN080 00/M01 Q0996 NOSIG RMK QFE740 13190060

More Conditions Fewer Conditions

10-Day Weather Forecast

Almanac

Astronomy

Apr. 02, 2015 Rise Set
Actual Time
Civil Twilight
Nautical Twilight
Astronomical Twilight
Moon
Length of Visible Light
Length of Day
Tomorrow will be .
, % of the Moon is Illuminated

Today's Extremes

Country Highs Country Lows

Community

WunderPhotos

Upload Photos

1,810,095 photos uploaded!

WunderBlogs® & News

Nearby

Air Quality

  Air Quality AQ Index Pollutant
Not available.

Snow Depth

Station Depth Elevation

Earthquake Activity

City Distance Mag. Time & Date
Minimum magnitude displayed is 2.5.

Coastal Water Temperatures

Place Temperature

Stations

Nearby Weather Stations

Station Location Temp. Windchill Dew Point Humidity Wind Precip. Elev Updated Type